Time;durP1;ratioP1;P1;durP2;ratioP2;P2;SDS_P1;SDS_P2;PMS_P1;PMS_P2;Temp;Humidity;BMP_temperature;BMP_pressure;BME280_temperature;BME280_humidity;BME280_pressure;Samples;Min_cycle;Max_cycle;Signal;HPM_P1;HPM_P2
2022/05/09 00:01:59;;;;;;;4.60;1.40;;;10.30;99.90;;;;;;5034646;28;20026;-39
2022/05/09 00:04:26;;;;;;;11.93;1.63;;;10.30;99.90;;;;;;5034468;28;20029;-37
2022/05/09 00:06:51;;;;;;;8.13;1.50;;;10.30;99.90;;;;;;5034441;28;20107;-38
2022/05/09 00:09:18;;;;;;;4.97;1.58;;;10.30;99.90;;;;;;5034670;28;20057;-38
2022/05/09 00:11:44;;;;;;;5.00;1.57;;;10.30;99.90;;;;;;5034271;28;20432;-37
2022/05/09 00:14:11;;;;;;;6.70;1.60;;;10.20;99.90;;;;;;5034515;28;20257;-37
2022/05/09 00:16:37;;;;;;;8.50;1.88;;;10.20;99.90;;;;;;5034447;28;20029;-38
2022/05/09 00:19:05;;;;;;;2.53;1.35;;;10.20;99.90;;;;;;5033924;28;20512;-38
2022/05/09 00:21:32;;;;;;;6.55;2.15;;;10.30;99.90;;;;;;5031842;28;20033;-37
2022/05/09 00:24:02;;;;;;;5.63;1.73;;;10.20;99.90;;;;;;5032824;28;20112;-39
2022/05/09 00:26:31;;;;;;;7.30;1.40;;;10.20;99.90;;;;;;5034120;28;20029;-39
2022/05/09 00:29:04;;;;;;;5.15;1.30;;;10.10;99.90;;;;;;5033082;28;20029;-38
2022/05/09 00:31:30;;;;;;;8.20;1.48;;;10.10;99.90;;;;;;5034216;28;20481;-38
2022/05/09 00:33:56;;;;;;;10.00;2.28;;;10.10;99.90;;;;;;5033799;28;20382;-37
2022/05/09 00:36:22;;;;;;;6.55;1.45;;;10.00;99.90;;;;;;5033972;28;20026;-38
2022/05/09 00:38:50;;;;;;;3.28;1.80;;;10.00;99.90;;;;;;5034054;28;20035;-37
2022/05/09 00:41:34;;;;;;;7.13;1.75;;;10.00;99.90;;;;;;5033773;28;20026;-39
2022/05/09 00:44:19;;;;;;;9.75;1.77;;;10.00;99.90;;;;;;5033737;28;20117;-37
2022/05/09 00:46:51;;;;;;;4.85;1.60;;;10.00;99.90;;;;;;5033733;28;20540;-38
2022/05/09 00:49:33;;;;;;;3.88;1.77;;;10.00;99.90;;;;;;5033974;28;20049;-37
2022/05/09 00:52:01;;;;;;;4.13;1.35;;;10.00;99.90;;;;;;5033650;28;20477;-37
2022/05/09 00:54:33;;;;;;;10.38;2.13;;;9.90;99.90;;;;;;5033567;28;20108;-37
2022/05/09 00:57:07;;;;;;;3.50;1.40;;;9.90;99.90;;;;;;5033826;28;20481;-37
2022/05/09 00:59:35;;;;;;;7.07;1.45;;;9.90;99.90;;;;;;5033463;28;20417;-37
2022/05/09 01:02:01;;;;;;;10.13;1.85;;;9.80;99.90;;;;;;5033414;28;20025;-37
2022/05/09 01:04:29;;;;;;;11.02;2.20;;;9.80;99.90;;;;;;5033404;28;20053;-37
2022/05/09 01:06:55;;;;;;;;;;;9.80;99.90;;;;;;5033848;28;20022;-38
2022/05/09 01:09:21;;;;;;;7.70;1.75;;;9.80;99.90;;;;;;5033304;28;19943;-37
2022/05/09 01:11:48;;;;;;;8.60;2.20;;;9.70;99.90;;;;;;5033375;28;20520;-38
2022/05/09 01:14:24;;;;;;;5.80;2.10;;;9.70;99.90;;;;;;5033256;28;20034;-43
2022/05/09 01:16:50;;;;;;;13.95;2.20;;;9.60;99.90;;;;;;5033224;28;20041;-51
2022/05/09 01:19:43;;;;;;;6.88;2.08;;;9.60;99.90;;;;;;5032980;28;20037;-36
2022/05/09 01:22:24;;;;;;;5.03;1.58;;;9.60;99.90;;;;;;5033219;28;20386;-38
2022/05/09 01:24:51;;;;;;;7.35;1.75;;;9.60;99.90;;;;;;5033157;28;20025;-39
2022/05/09 01:27:17;;;;;;;5.72;2.10;;;9.50;99.90;;;;;;5032007;28;20026;-38
2022/05/09 01:30:04;;;;;;;7.18;2.42;;;9.50;99.90;;;;;;5033184;28;20028;-39
2022/05/09 01:32:34;;;;;;;6.10;1.60;;;9.50;99.90;;;;;;5032782;28;20136;-36
2022/05/09 01:35:45;;;;;;;15.55;2.17;;;9.50;99.90;;;;;;5033116;28;20028;-39
2022/05/09 01:38:16;;;;;;;8.00;1.83;;;9.40;99.90;;;;;;5033230;28;20466;-38
2022/05/09 01:40:42;;;;;;;10.48;1.95;;;9.40;99.90;;;;;;5033188;28;20527;-38
2022/05/09 01:43:08;;;;;;;11.13;2.03;;;9.40;99.90;;;;;;5033016;28;20018;-27
2022/05/09 01:45:33;;;;;;;6.85;1.73;;;9.50;99.90;;;;;;5032923;28;20021;-29
2022/05/09 01:50:43;;;;;;;15.43;1.90;;;9.40;99.90;;;;;;5032870;28;20041;-33
2022/05/09 01:53:09;;;;;;;8.35;1.92;;;9.40;99.90;;;;;;5032880;28;20025;-28
2022/05/09 01:55:35;;;;;;;13.38;2.10;;;9.30;99.90;;;;;;5032890;28;20021;-29
2022/05/09 01:58:00;;;;;;;6.70;1.60;;;9.30;99.90;;;;;;5032715;28;20048;-29
2022/05/09 02:00:26;;;;;;;5.72;1.50;;;9.30;99.90;;;;;;5032824;28;20025;-28
2022/05/09 02:02:52;;;;;;;3.70;1.95;;;9.30;99.90;;;;;;5033006;28;20044;-30
2022/05/09 02:05:18;;;;;;;11.13;2.22;;;9.30;99.90;;;;;;5033064;28;20021;-30
2022/05/09 02:07:45;;;;;;;6.40;2.00;;;9.30;99.90;;;;;;5032773;28;20048;-28
2022/05/09 02:10:11;;;;;;;8.00;1.67;;;9.30;99.90;;;;;;5032736;28;20504;-27
2022/05/09 02:12:36;;;;;;;7.35;1.58;;;9.30;99.90;;;;;;5032739;28;20026;-37
2022/05/09 02:15:03;;;;;;;6.57;1.65;;;9.30;99.90;;;;;;5032696;28;20021;-29
2022/05/09 02:17:30;;;;;;;12.40;2.45;;;9.30;99.90;;;;;;5032699;28;20030;-37
2022/05/09 02:19:56;;;;;;;5.63;1.05;;;9.40;99.90;;;;;;5032510;28;20064;-49
2022/05/09 02:22:21;;;;;;;7.40;1.65;;;9.30;99.90;;;;;;5032689;28;20046;-35
2022/05/09 02:24:47;;;;;;;8.98;2.30;;;9.30;99.90;;;;;;5032694;28;20022;-37
2022/05/09 02:27:12;;;;;;;6.13;1.70;;;9.30;99.90;;;;;;5032890;28;20096;-38
2022/05/09 02:29:39;;;;;;;8.80;1.95;;;9.20;99.90;;;;;;5032547;28;20059;-36
2022/05/09 02:32:06;;;;;;;9.70;2.10;;;9.20;99.90;;;;;;5032546;28;20108;-37
2022/05/09 02:34:32;;;;;;;13.38;2.22;;;9.20;99.90;;;;;;5032444;28;20025;-36
2022/05/09 02:36:58;;;;;;;11.65;2.00;;;9.10;99.90;;;;;;5032627;28;20053;-38
2022/05/09 02:39:24;;;;;;;8.30;2.28;;;9.10;99.90;;;;;;5014414;28;20048;-37
2022/05/09 02:41:49;;;;;;;3.92;1.58;;;9.10;99.90;;;;;;5032453;28;20026;-38
2022/05/09 02:44:15;;;;;;;7.20;2.20;;;9.10;99.90;;;;;;5034361;28;20029;-39
2022/05/09 02:46:42;;;;;;;3.25;1.70;;;9.10;99.90;;;;;;5035927;28;20022;-36
2022/05/09 02:49:11;;;;;;;8.63;1.95;;;9.10;99.90;;;;;;5035808;28;20104;-30
2022/05/09 02:51:37;;;;;;;4.78;2.00;;;9.10;99.90;;;;;;5035855;28;20025;-29
2022/05/09 02:54:03;;;;;;;7.45;1.60;;;9.00;99.90;;;;;;5035770;28;20049;-46
2022/05/09 02:56:29;;;;;;;8.05;2.33;;;9.00;99.90;;;;;;5035819;28;20025;-38
2022/05/09 02:58:55;;;;;;;7.75;2.40;;;9.10;99.90;;;;;;5035718;28;20036;-36
2022/05/09 03:01:20;;;;;;;13.77;2.45;;;9.00;99.90;;;;;;5035816;28;20022;-38
2022/05/09 03:06:50;;;;;;;7.40;2.63;;;9.00;99.90;;;;;;5033527;28;20034;-37
2022/05/09 03:09:15;;;;;;;6.63;1.90;;;9.00;99.90;;;;;;5033450;28;20038;-40
2022/05/09 03:11:41;;;;;;;14.05;2.05;;;8.90;99.90;;;;;;5034213;28;20091;-38
2022/05/09 03:14:07;;;;;;;10.95;2.05;;;8.90;99.90;;;;;;5035424;28;20083;-38
2022/05/09 03:16:33;;;;;;;4.75;1.75;;;8.90;99.90;;;;;;5035420;28;20044;-37
2022/05/09 03:18:59;;;;;;;4.32;2.10;;;8.80;99.90;;;;;;5035106;28;20041;-37
2022/05/09 03:21:24;;;;;;;9.27;2.13;;;8.80;99.90;;;;;;5035371;28;20030;-37
2022/05/09 03:23:50;;;;;;;6.80;1.85;;;8.80;99.90;;;;;;5035349;28;20030;-46
2022/05/09 03:26:15;;;;;;;8.68;2.40;;;8.80;99.90;;;;;;5035257;28;20056;-37
2022/05/09 03:28:41;;;;;;;6.40;2.22;;;8.80;99.90;;;;;;5033604;28;20037;-37
2022/05/09 03:31:07;;;;;;;12.10;1.90;;;8.70;99.90;;;;;;5035074;28;20026;-38
2022/05/09 03:33:33;;;;;;;7.18;2.22;;;8.70;99.90;;;;;;5035009;28;20021;-38
2022/05/09 03:35:59;;;;;;;7.57;2.67;;;8.70;99.90;;;;;;5035275;28;20021;-37
2022/05/09 03:38:26;;;;;;;7.93;3.60;;;8.70;99.90;;;;;;5035149;28;20386;-37
2022/05/09 03:40:51;;;;;;;7.70;2.05;;;8.60;99.90;;;;;;5034900;28;20022;-39
2022/05/09 03:43:17;;;;;;;12.02;2.38;;;8.60;99.90;;;;;;5034919;28;20044;-38
2022/05/09 03:45:45;;;;;;;7.45;1.95;;;8.60;99.90;;;;;;5033552;28;20091;-39
2022/05/09 03:48:11;;;;;;;6.90;1.95;;;8.60;99.90;;;;;;5034732;28;20079;-38
2022/05/09 03:50:37;;;;;;;13.50;3.05;;;8.50;99.90;;;;;;5034809;28;20029;-31
2022/05/09 03:53:03;;;;;;;8.30;2.47;;;8.50;99.90;;;;;;5034698;28;20095;-31
2022/05/09 03:55:28;;;;;;;22.13;3.70;;;8.50;99.90;;;;;;5034639;28;20496;-28
2022/05/09 03:57:56;;;;;;;14.93;2.50;;;8.50;99.90;;;;;;5034822;28;20021;-28
2022/05/09 04:00:24;;;;;;;8.70;2.05;;;8.50;99.90;;;;;;5034735;28;20017;-28
2022/05/09 04:02:51;;;;;;;11.85;2.00;;;8.50;99.90;;;;;;5034411;28;20029;-32
2022/05/09 04:05:17;;;;;;;12.90;2.60;;;8.50;99.90;;;;;;5034750;28;20040;-28
2022/05/09 04:07:51;;;;;;;9.25;2.97;;;8.50;99.90;;;;;;5034439;28;20022;-30
2022/05/09 04:10:23;;;;;;;7.55;2.72;;;8.50;99.90;;;;;;5034401;28;20028;-29
2022/05/09 04:12:48;;;;;;;11.70;2.05;;;8.50;99.90;;;;;;5034320;28;20029;-29
2022/05/09 04:17:59;;;;;;;8.77;2.58;;;8.50;99.90;;;;;;5034247;28;20032;-28
2022/05/09 04:20:25;;;;;;;15.57;3.03;;;8.50;99.90;;;;;;5034288;28;20470;-29
2022/05/09 04:22:52;;;;;;;15.48;2.83;;;8.50;99.90;;;;;;5034079;28;20021;-32
2022/05/09 04:25:19;;;;;;;6.40;2.10;;;8.50;99.90;;;;;;5034384;28;20013;-46
2022/05/09 04:27:45;;;;;;;8.05;1.73;;;8.50;99.90;;;;;;5034029;28;20477;-37
2022/05/09 04:30:12;;;;;;;11.07;2.45;;;8.50;99.90;;;;;;5033996;28;20474;-37
2022/05/09 04:32:39;;;;;;;10.27;2.33;;;8.60;99.90;;;;;;5033966;28;20105;-36
2022/05/09 04:35:05;;;;;;;9.48;2.15;;;8.60;99.90;;;;;;5032620;28;20511;-36
2022/05/09 04:37:32;;;;;;;7.47;1.85;;;8.60;99.90;;;;;;5033801;28;20025;-29
2022/05/09 04:39:59;;;;;;;11.75;2.55;;;8.60;99.90;;;;;;5033727;28;20032;-29
2022/05/09 04:42:24;;;;;;;9.02;2.75;;;8.60;99.90;;;;;;5032339;28;20029;-32
2022/05/09 04:44:50;;;;;;;6.45;2.30;;;8.60;99.90;;;;;;5033569;28;20452;-37
2022/05/09 04:47:16;;;;;;;9.68;2.47;;;8.60;99.90;;;;;;5033594;28;20029;-30
2022/05/09 04:49:41;;;;;;;8.52;2.40;;;8.60;99.90;;;;;;5033647;28;20024;-30
2022/05/09 04:52:07;;;;;;;7.18;2.17;;;8.60;99.90;;;;;;5033586;28;20128;-34
2022/05/09 04:54:33;;;;;;;8.60;2.50;;;8.60;99.90;;;;;;5033850;28;20071;-31
2022/05/09 04:56:58;;;;;;;10.80;2.83;;;8.70;99.90;;;;;;5033533;28;20022;-32
2022/05/09 04:59:24;;;;;;;10.15;2.22;;;8.70;99.90;;;;;;5032251;28;20026;-35
2022/05/09 05:01:49;;;;;;;11.90;2.78;;;8.80;99.90;;;;;;5033437;28;20415;-38
2022/05/09 05:04:17;;;;;;;9.20;2.10;;;8.80;99.90;;;;;;5033510;28;20028;-38
2022/05/09 05:06:43;;;;;;;6.57;2.13;;;8.90;99.90;;;;;;5032772;28;20466;-37
2022/05/09 05:09:09;;;;;;;13.98;2.53;;;8.90;99.90;;;;;;5033585;28;20474;-38
2022/05/09 05:11:35;;;;;;;5.90;2.50;;;9.00;99.90;;;;;;5033381;28;20037;-40
2022/05/09 05:14:00;;;;;;;13.65;2.88;;;9.10;99.90;;;;;;5032391;28;20100;-37
2022/05/09 05:16:59;;;;;;;14.60;2.50;;;9.20;99.90;;;;;;5033306;28;20060;-37
2022/05/09 05:19:12;;;;;;;6.95;2.42;;;9.20;99.90;;;;;;5032873;28;20042;-39
2022/05/09 05:21:37;;;;;;;11.68;3.78;;;9.30;99.90;;;;;;5033464;28;20377;-42
2022/05/09 05:24:03;;;;;;;4.88;2.25;;;9.40;99.90;;;;;;5033235;28;20025;-37
2022/05/09 05:26:28;;;;;;;8.13;2.30;;;9.40;99.90;;;;;;5033090;28;20022;-37
2022/05/09 05:28:54;;;;;;;17.13;3.38;;;9.50;99.90;;;;;;5033328;28;20104;-38
2022/05/09 05:31:20;;;;;;;13.73;2.90;;;9.70;99.90;;;;;;5033061;28;20034;-30
2022/05/09 05:33:46;;;;;;;9.45;2.70;;;9.80;99.90;;;;;;5032976;28;20032;-47
2022/05/09 05:36:13;;;;;;;8.65;2.70;;;9.80;99.90;;;;;;5033349;28;20028;-31
2022/05/09 05:38:39;;;;;;;8.70;2.88;;;9.90;99.90;;;;;;5033251;28;20034;-30
2022/05/09 05:41:04;;;;;;;15.35;2.60;;;10.00;99.90;;;;;;5033288;28;20550;-35
2022/05/09 05:43:30;;;;;;;15.57;2.47;;;10.00;99.90;;;;;;5033012;28;20026;-29
2022/05/09 05:45:56;;;;;;;7.30;2.50;;;10.20;99.90;;;;;;5032913;28;20024;-33
2022/05/09 05:48:22;;;;;;;9.57;2.33;;;10.30;99.90;;;;;;5032888;28;20044;-32
2022/05/09 05:50:47;;;;;;;11.40;3.38;;;10.40;99.90;;;;;;5032884;28;20029;-30
2022/05/09 05:53:13;;;;;;;9.00;2.60;;;10.60;99.90;;;;;;5032889;28;20493;-31
2022/05/09 05:55:39;;;;;;;16.20;3.35;;;10.70;99.90;;;;;;5031985;28;20034;-31
2022/05/09 05:58:04;;;;;;;10.68;2.50;;;10.80;99.90;;;;;;5032791;28;20032;-29
2022/05/09 06:00:30;;;;;;;8.60;2.88;;;11.00;99.90;;;;;;5032861;28;20453;-30
2022/05/09 06:02:55;;;;;;;7.20;2.30;;;11.20;99.90;;;;;;5032753;28;20024;-30
2022/05/09 06:05:21;;;;;;;11.85;2.65;;;11.30;99.90;;;;;;5032691;28;20026;-29
2022/05/09 06:07:51;;;;;;;19.40;3.10;;;11.40;99.90;;;;;;5033015;28;20049;-35
2022/05/09 06:10:18;;;;;;;13.05;2.75;;;11.50;99.90;;;;;;5032669;28;20031;-32
2022/05/09 06:12:43;;;;;;;11.82;2.67;;;11.70;99.90;;;;;;5032627;28;20039;-32
2022/05/09 06:15:25;;;;;;;6.75;2.25;;;11.90;99.90;;;;;;5032663;28;20108;-29
2022/05/09 06:17:52;;;;;;;14.52;2.50;;;12.60;99.90;;;;;;5033658;28;20026;-35
2022/05/09 06:20:19;;;;;;;13.57;4.15;;;14.10;99.90;;;;;;5036244;28;20042;-29
2022/05/09 06:22:45;;;;;;;10.02;2.50;;;15.60;99.90;;;;;;5035089;28;20025;-31
2022/05/09 06:25:14;;;;;;;6.65;2.00;;;16.40;99.60;;;;;;5036595;28;20476;-30
2022/05/09 06:27:41;;;;;;;8.93;2.05;;;17.30;98.30;;;;;;5035026;28;20486;-47
2022/05/09 06:30:09;;;;;;;9.63;2.50;;;17.70;97.60;;;;;;5036220;28;20017;-36
2022/05/09 06:32:35;;;;;;;5.85;3.42;;;18.00;97.40;;;;;;5036160;28;20080;-31
2022/05/09 06:35:02;;;;;;;10.60;2.80;;;18.50;96.60;;;;;;5036031;28;20424;-30
2022/05/09 06:37:30;;;;;;;7.78;2.15;;;18.90;96.40;;;;;;5036116;28;20029;-29
2022/05/09 06:39:56;;;;;;;10.48;2.78;;;19.20;96.20;;;;;;5036360;28;20486;-32
2022/05/09 06:42:21;;;;;;;9.30;3.17;;;19.50;95.60;;;;;;5035988;28;20025;-32
2022/05/09 06:44:47;;;;;;;7.20;2.33;;;19.80;95.60;;;;;;5035963;28;20032;-31
2022/05/09 06:47:13;;;;;;;8.07;2.90;;;20.10;95.00;;;;;;5035994;28;20033;-29
2022/05/09 06:49:38;;;;;;;11.27;3.45;;;20.40;94.70;;;;;;5018284;28;20021;-35
2022/05/09 06:52:05;;;;;;;7.95;2.22;;;20.40;94.60;;;;;;5035886;28;20032;-33
2022/05/09 06:54:30;;;;;;;8.77;2.55;;;20.60;93.90;;;;;;5034501;28;20448;-33
2022/05/09 06:56:56;;;;;;;8.98;3.15;;;20.70;93.90;;;;;;5035740;28;20029;-33
2022/05/09 06:59:21;;;;;;;5.13;2.10;;;20.60;93.90;;;;;;5035823;28;20056;-29
2022/05/09 07:01:50;;;;;;;11.63;2.25;;;20.60;94.20;;;;;;5035498;28;20055;-32
2022/05/09 07:04:16;;;;;;;7.22;2.00;;;20.70;94.30;;;;;;5035827;28;20052;-32
2022/05/09 07:06:41;;;;;;;8.52;2.13;;;20.90;94.10;;;;;;5035557;28;20018;-38
2022/05/09 07:09:10;;;;;;;12.10;2.58;;;20.80;93.90;;;;;;5035540;28;20026;-42
2022/05/09 07:11:36;;;;;;;7.93;2.53;;;20.70;93.90;;;;;;5035468;28;20032;-32
2022/05/09 07:14:02;;;;;;;7.63;2.28;;;20.60;94.10;;;;;;5035416;28;20056;-29
2022/05/09 07:16:28;;;;;;;10.18;2.70;;;20.40;94.30;;;;;;5035387;28;20550;-31
2022/05/09 07:18:54;;;;;;;4.53;2.10;;;20.10;94.00;;;;;;5035100;28;20124;-29
2022/05/09 07:21:20;;;;;;;12.10;2.30;;;19.70;94.70;;;;;;5035314;28;20025;-32
2022/05/09 07:23:45;;;;;;;18.08;2.35;;;19.10;95.00;;;;;;5035252;28;20064;-29
2022/05/09 07:26:11;;;;;;;12.90;2.33;;;18.60;95.30;;;;;;5035195;28;20096;-30
2022/05/09 07:28:36;;;;;;;15.02;3.28;;;18.30;95.40;;;;;;5035195;28;20030;-48
2022/05/09 07:31:03;;;;;;;13.10;2.85;;;18.10;95.50;;;;;;5034759;28;20446;-38
2022/05/09 07:33:29;;;;;;;7.88;2.83;;;18.00;96.00;;;;;;5035087;28;20026;-38
2022/05/09 07:35:56;;;;;;;9.80;2.95;;;18.10;95.80;;;;;;5035183;28;20025;-38
2022/05/09 07:38:22;;;;;;;18.55;2.65;;;18.20;95.50;;;;;;5035265;28;20389;-38
2022/05/09 07:40:48;;;;;;;10.00;2.17;;;18.20;95.70;;;;;;5035215;28;20013;-37
2022/05/09 07:43:23;;;;;;;7.75;2.80;;;18.40;95.50;;;;;;5033654;28;20063;-38
2022/05/09 07:45:51;;;;;;;5.55;1.90;;;18.50;95.60;;;;;;5034880;28;20017;-38
2022/05/09 07:48:19;;;;;;;11.00;2.40;;;18.60;95.60;;;;;;5035106;28;20032;-39
2022/05/09 07:50:45;;;;;;;9.13;2.70;;;18.70;95.40;;;;;;5034755;28;20025;-49
2022/05/09 07:53:23;;;;;;;6.00;2.10;;;18.90;95.20;;;;;;5034744;28;20060;-32
2022/05/09 07:55:49;;;;;;;6.10;2.58;;;19.10;95.00;;;;;;5034748;28;20091;-31
2022/05/09 07:58:15;;;;;;;9.88;2.28;;;19.20;94.80;;;;;;5034468;28;20029;-28
2022/05/09 08:00:42;;;;;;;8.73;2.17;;;19.50;94.50;;;;;;5034863;28;20108;-29
2022/05/09 08:03:18;;;;;;;5.32;1.92;;;19.70;94.30;;;;;;5034751;28;20117;-32
2022/05/09 08:05:44;;;;;;;8.88;2.63;;;19.80;94.30;;;;;;5034492;28;20029;-29
2022/05/09 08:08:10;;;;;;;16.05;2.13;;;20.00;94.00;;;;;;5033297;28;20030;-30
2022/05/09 08:10:37;;;;;;;12.57;2.80;;;20.10;93.80;;;;;;5034289;28;20079;-32
2022/05/09 08:13:04;;;;;;;4.83;2.00;;;20.20;93.70;;;;;;5034526;28;20022;-32
2022/05/09 08:15:31;;;;;;;6.30;2.22;;;20.40;93.60;;;;;;5034293;28;20029;-36
2022/05/09 08:17:58;;;;;;;6.45;2.35;;;20.50;93.50;;;;;;5034174;28;20109;-29
2022/05/09 08:20:24;;;;;;;7.10;1.90;;;20.70;93.20;;;;;;5034011;28;20037;-30
2022/05/09 08:23:09;;;;;;;5.18;1.95;;;20.90;92.80;;;;;;5034356;28;20469;-32
2022/05/09 08:25:37;;;;;;;13.60;2.47;;;21.10;92.40;;;;;;5034091;28;20024;-30
2022/05/09 08:28:05;;;;;;;7.80;2.55;;;21.20;92.70;;;;;;5034077;28;20029;-29
2022/05/09 08:30:33;;;;;;;5.85;2.20;;;21.40;92.40;;;;;;5016230;28;20052;-30
2022/05/09 08:33:04;;;;;;;4.85;2.33;;;21.70;92.20;;;;;;5033908;28;20025;-32
2022/05/09 08:35:30;;;;;;;3.95;1.77;;;22.10;91.50;;;;;;5034085;28;20037;-30
2022/05/09 08:37:56;;;;;;;4.97;2.03;;;22.20;91.50;;;;;;5033872;28;20151;-31
2022/05/09 08:40:36;;;;;;;8.13;2.05;;;22.40;91.40;;;;;;5033634;28;20028;-30
2022/05/09 08:43:23;;;;;;;7.00;2.03;;;22.70;90.70;;;;;;5033306;28;20482;-32
2022/05/09 08:46:07;;;;;;;8.90;2.03;;;22.70;91.40;;;;;;5033767;28;20466;-34
2022/05/09 08:49:20;;;;;;;9.68;2.08;;;23.00;91.00;;;;;;5033705;28;20037;-30
2022/05/09 08:52:10;;;;;;;6.35;1.90;;;23.40;90.10;;;;;;5031509;28;20506;-31
2022/05/09 08:54:38;;;;;;;7.53;1.33;;;23.90;89.50;;;;;;5031417;28;20512;-36
2022/05/09 08:57:09;;;;;;;5.38;1.73;;;24.20;88.80;;;;;;5032600;28;20466;-32
2022/05/09 08:59:39;;;;;;;4.95;2.35;;;24.40;87.50;;;;;;5033449;28;20478;-30
2022/05/09 09:02:14;;;;;;;5.57;1.90;;;24.60;87.00;;;;;;5033403;28;20523;-29
2022/05/09 09:04:45;;;;;;;5.82;2.15;;;24.40;85.50;;;;;;5033730;28;20453;-31
2022/05/09 09:07:52;;;;;;;2.78;1.50;;;24.40;85.90;;;;;;5033465;28;20029;-31
2022/05/09 09:10:34;;;;;;;5.60;2.10;;;24.70;85.30;;;;;;5032777;28;20453;-34
2022/05/09 09:13:45;;;;;;;10.00;1.90;;;24.80;84.50;;;;;;5033498;28;20026;-30
2022/05/09 09:16:26;;;;;;;9.68;1.40;;;24.00;83.00;;;;;;5033177;28;20030;-32
2022/05/09 09:19:13;;;;;;;8.75;2.60;;;23.30;84.40;;;;;;5032953;28;20493;-30
2022/05/09 09:22:00;;;;;;;5.13;1.95;;;23.10;85.60;;;;;;5033380;28;20469;-32
2022/05/09 09:24:48;;;;;;;2.55;1.10;;;23.60;85.40;;;;;;5033086;28;20112;-30
2022/05/09 09:27:40;;;;;;;6.07;1.70;;;24.40;85.70;;;;;;5033414;28;20101;-32
2022/05/09 09:30:11;;;;;;;7.53;1.67;;;25.50;83.90;;;;;;5033286;28;20486;-32
2022/05/09 09:32:39;;;;;;;7.13;1.73;;;26.10;82.50;;;;;;5033096;28;20029;-30
2022/05/09 09:35:16;;;;;;;8.95;1.58;;;26.40;81.30;;;;;;5032891;28;20018;-32
2022/05/09 09:37:58;;;;;;;5.78;1.27;;;27.00;79.90;;;;;;5033159;28;20029;-30
2022/05/09 09:40:23;;;;;;;6.40;2.35;;;27.00;79.00;;;;;;5033246;28;20484;-31
2022/05/09 09:42:54;;;;;;;7.03;1.92;;;26.70;78.90;;;;;;5032920;28;20036;-32
2022/05/09 09:45:33;;;;;;;6.00;1.70;;;26.40;79.30;;;;;;5032776;28;20030;-30
2022/05/09 09:48:12;;;;;;;5.22;2.05;;;26.30;79.70;;;;;;5032879;28;20561;-31
2022/05/09 09:51:12;;;;;;;6.18;2.35;;;26.10;79.10;;;;;;5031581;28;20037;-32
2022/05/09 09:53:57;;;;;;;4.72;1.90;;;25.50;79.70;;;;;;5035685;28;20417;-30
2022/05/09 09:56:24;;;;;;;4.20;1.80;;;25.00;80.60;;;;;;5037121;28;20029;-35
2022/05/09 09:58:52;;;;;;;5.75;2.47;;;24.80;81.40;;;;;;5036690;28;20105;-34
2022/05/09 10:01:22;;;;;;;6.60;2.10;;;24.90;80.40;;;;;;5036797;28;20045;-32
2022/05/09 10:04:14;;;;;;;4.05;2.35;;;24.90;80.50;;;;;;5036785;28;20030;-30
2022/05/09 10:07:06;;;;;;;6.60;1.88;;;25.10;81.10;;;;;;5037002;28;20460;-31
2022/05/09 10:10:00;;;;;;;9.23;1.85;;;25.30;79.40;;;;;;5036787;28;20474;-37
2022/05/09 10:12:28;;;;;;;4.53;1.10;;;24.60;79.70;;;;;;5036436;28;20489;-39
2022/05/09 10:14:53;;;;;;;2.03;1.73;;;24.30;81.60;;;;;;5036533;28;20029;-39
2022/05/09 10:17:21;;;;;;;7.38;1.77;;;24.60;81.40;;;;;;5036550;28;20025;-38
2022/05/09 10:19:48;;;;;;;3.85;2.05;;;25.00;80.00;;;;;;5036083;28;20120;-38
2022/05/09 10:25:06;;;;;;;8.40;2.55;;;25.70;78.60;;;;;;5036571;28;20076;-38
2022/05/09 10:27:32;;;;;;;5.80;1.80;;;26.00;78.50;;;;;;5036332;28;20021;-39
2022/05/09 10:30:15;;;;;;;3.83;1.48;;;25.90;79.50;;;;;;5036506;28;20396;-39
2022/05/09 10:32:59;;;;;;;3.83;1.80;;;26.00;77.30;;;;;;5034983;28;20040;-39
2022/05/09 10:35:42;;;;;;;7.45;2.00;;;26.30;77.00;;;;;;5036167;28;20090;-39
2022/05/09 10:38:17;;;;;;;9.13;2.00;;;26.60;76.20;;;;;;5036092;28;20036;-40
2022/05/09 10:40:54;;;;;;;7.18;1.65;;;26.70;76.30;;;;;;5036332;28;20109;-39
2022/05/09 10:43:33;;;;;;;5.22;2.00;;;26.60;76.20;;;;;;5036294;28;20025;-44
2022/05/09 10:46:09;;;;;;;7.55;1.42;;;26.40;77.00;;;;;;5036094;28;20036;-39
2022/05/09 10:48:59;;;;;;;5.70;1.60;;;26.10;76.80;;;;;;5036103;28;20026;-38
2022/05/09 10:51:51;;;;;;;3.65;1.80;;;25.90;76.70;;;;;;5035853;28;20037;-38
2022/05/09 10:54:31;;;;;;;11.30;1.80;;;25.50;76.70;;;;;;5036054;28;20477;-39
2022/05/09 10:57:01;;;;;;;6.35;1.83;;;25.10;78.30;;;;;;5035811;28;20345;-39
2022/05/09 10:59:31;;;;;;;4.72;1.98;;;24.80;78.50;;;;;;5035549;28;20033;-37
2022/05/09 11:02:12;;;;;;;5.85;1.95;;;24.60;78.70;;;;;;5035648;28;20021;-37
2022/05/09 11:04:38;;;;;;;5.93;2.08;;;24.60;77.60;;;;;;5034562;28;20033;-38
2022/05/09 11:07:30;;;;;;;2.28;1.10;;;24.50;77.50;;;;;;5035682;28;20064;-37
2022/05/09 11:10:04;;;;;;;3.20;1.25;;;24.40;76.70;;;;;;5035497;28;20095;-34
2022/05/09 11:12:49;;;;;;;7.72;1.88;;;24.20;77.10;;;;;;5035498;28;20035;-31
2022/05/09 11:15:30;;;;;;;3.22;1.70;;;24.10;78.70;;;;;;5035792;28;20053;-31
2022/05/09 11:18:41;;;;;;;3.38;1.80;;;24.00;78.30;;;;;;5035385;28;20025;-40
2022/05/09 11:21:33;;;;;;;7.95;1.90;;;23.80;79.70;;;;;;5035329;28;20034;-32
2022/05/09 11:24:13;;;;;;;4.18;1.55;;;23.70;80.80;;;;;;5035270;28;20034;-29
2022/05/09 11:26:54;;;;;;;5.20;1.63;;;23.80;81.00;;;;;;5034007;28;20029;-28
2022/05/09 11:29:38;;;;;;;2.45;1.50;;;24.00;80.40;;;;;;5034096;28;20128;-32
2022/05/09 11:32:16;;;;;;;12.10;2.20;;;24.10;79.20;;;;;;5035191;28;20040;-35
2022/05/09 11:35:07;;;;;;;8.80;2.08;;;24.20;79.90;;;;;;5035053;28;20029;-30
2022/05/09 11:37:35;;;;;;;3.50;1.65;;;24.40;77.90;;;;;;5035020;28;20055;-34
2022/05/09 11:40:34;;;;;;;4.28;1.27;;;24.40;78.20;;;;;;5034882;28;20032;-50
2022/05/09 11:43:32;;;;;;;4.22;1.45;;;24.60;77.20;;;;;;5034853;28;20379;-38
2022/05/09 11:46:20;;;;;;;3.10;1.33;;;24.60;76.40;;;;;;5035144;28;20037;-36
2022/05/09 11:49:17;;;;;;;4.00;1.38;;;24.70;75.70;;;;;;5034903;28;20037;-36
2022/05/09 11:51:53;;;;;;;12.88;1.70;;;24.80;75.30;;;;;;5034696;28;20033;-38
2022/05/09 11:54:21;;;;;;;2.15;1.75;;;24.70;76.80;;;;;;5034761;28;20034;-38
2022/05/09 11:57:08;;;;;;;13.38;2.67;;;24.50;77.50;;;;;;5034722;28;20025;-38
2022/05/09 11:59:36;;;;;;;7.20;2.20;;;24.40;79.30;;;;;;5034420;28;20096;-36
2022/05/09 12:02:03;;;;;;;6.13;1.42;;;24.60;79.30;;;;;;5034514;28;20061;-51
2022/05/09 12:04:29;;;;;;;2.80;1.10;;;24.70;79.80;;;;;;5034532;28;20087;-37
2022/05/09 12:06:55;;;;;;;7.15;2.15;;;25.00;79.60;;;;;;5034494;28;20112;-31
2022/05/09 12:09:58;;;;;;;6.38;1.98;;;25.20;78.30;;;;;;5034439;28;20029;-28
2022/05/09 12:12:41;;;;;;;7.72;2.28;;;25.20;78.30;;;;;;5032793;28;20405;-37
2022/05/09 12:15:16;;;;;;;11.15;1.80;;;25.00;77.70;;;;;;5034155;28;20037;-35
2022/05/09 12:17:43;;;;;;;11.00;1.85;;;24.80;78.80;;;;;;5032931;28;20445;-29
2022/05/09 12:20:29;;;;;;;3.60;2.33;;;24.70;79.90;;;;;;5034007;28;20543;-31
2022/05/09 12:22:57;;;;;;;1.88;1.60;;;24.70;79.00;;;;;;5033296;28;20128;-37
2022/05/09 12:25:43;;;;;;;7.97;2.60;;;24.80;79.80;;;;;;5034414;28;20028;-38
2022/05/09 12:28:21;;;;;;;7.38;2.00;;;24.90;80.70;;;;;;5034461;28;20497;-37
2022/05/09 12:30:49;;;;;;;;;;;25.20;80.60;;;;;;5034550;28;20398;-37
2022/05/09 12:33:14;;;;;;;5.00;1.50;;;25.30;78.50;;;;;;5032591;28;19909;-38
2022/05/09 12:35:42;;;;;;;12.38;2.03;;;25.40;78.90;;;;;;5033891;28;20142;-38
2022/05/09 12:38:09;;;;;;;;;;;25.60;79.40;;;;;;5034166;28;20029;-38
2022/05/09 12:40:36;;;;;;;5.45;1.92;;;25.70;77.50;;;;;;5033860;28;19909;-38
2022/05/09 12:43:03;;;;;;;6.57;1.70;;;25.90;76.90;;;;;;5034077;28;20474;-38
2022/05/09 12:45:30;;;;;;;7.10;1.77;;;25.60;78.00;;;;;;5033760;28;20028;-38
2022/05/09 12:47:56;;;;;;;13.23;2.13;;;25.30;78.30;;;;;;5033669;28;20063;-37
2022/05/09 12:50:26;;;;;;;6.28;1.98;;;25.40;80.00;;;;;;5033947;28;20295;-37
2022/05/09 12:52:59;;;;;;;5.32;2.08;;;25.50;79.30;;;;;;5033948;28;20547;-39
2022/05/09 12:55:52;;;;;;;3.65;1.83;;;25.70;79.20;;;;;;5033931;28;20386;-38
2022/05/09 12:58:33;;;;;;;5.82;2.10;;;25.80;78.40;;;;;;5033544;28;20474;-37
2022/05/09 13:01:06;;;;;;;5.28;1.65;;;25.90;78.60;;;;;;5032744;28;20551;-38
2022/05/09 13:03:41;;;;;;;6.18;2.03;;;26.10;77.00;;;;;;5033752;28;20021;-37
2022/05/09 13:06:13;;;;;;;4.97;1.58;;;26.20;78.10;;;;;;5033434;28;20025;-36
2022/05/09 13:08:40;;;;;;;3.47;2.13;;;26.20;77.30;;;;;;5033436;28;20032;-36
2022/05/09 13:11:14;;;;;;;13.57;2.65;;;26.20;77.00;;;;;;5033358;28;20527;-39
2022/05/09 13:13:46;;;;;;;5.00;2.28;;;26.10;77.60;;;;;;5033575;28;20087;-37
2022/05/09 13:16:20;;;;;;;3.38;2.33;;;26.00;79.00;;;;;;5032158;28;20022;-39
2022/05/09 13:18:46;;;;;;;5.97;2.03;;;26.00;78.40;;;;;;5031718;28;20033;-39
2022/05/09 13:21:12;;;;;;;2.75;2.05;;;26.10;77.60;;;;;;5031601;28;20044;-38